sensor_id;sensor_type;location;lat;lon;timestamp;temperature;humidity
57857;DHT22;43683;48.650;9.290;2022-12-29T00:02:05;6.30;89.30
57857;DHT22;43683;48.650;9.290;2022-12-29T00:04:30;6.20;89.40
57857;DHT22;43683;48.650;9.290;2022-12-29T00:06:56;6.20;90.10
57857;DHT22;43683;48.650;9.290;2022-12-29T00:09:22;6.20;89.50
57857;DHT22;43683;48.650;9.290;2022-12-29T00:11:47;6.20;89.60
57857;DHT22;43683;48.650;9.290;2022-12-29T00:14:13;6.30;89.50
57857;DHT22;43683;48.650;9.290;2022-12-29T00:16:57;6.50;89.20
57857;DHT22;43683;48.650;9.290;2022-12-29T00:19:24;6.70;88.70
57857;DHT22;43683;48.650;9.290;2022-12-29T00:22:10;6.90;88.30
57857;DHT22;43683;48.650;9.290;2022-12-29T00:24:55;7.00;87.80
57857;DHT22;43683;48.650;9.290;2022-12-29T00:27:29;7.20;87.60
57857;DHT22;43683;48.650;9.290;2022-12-29T00:30:20;7.30;87.50
57857;DHT22;43683;48.650;9.290;2022-12-29T00:33:12;7.40;87.40
57857;DHT22;43683;48.650;9.290;2022-12-29T00:36:06;7.40;87.40
57857;DHT22;43683;48.650;9.290;2022-12-29T00:38:35;7.40;87.50
57857;DHT22;43683;48.650;9.290;2022-12-29T00:41:20;7.30;87.80
57857;DHT22;43683;48.650;9.290;2022-12-29T00:44:05;7.20;88.20
57857;DHT22;43683;48.650;9.290;2022-12-29T00:46:31;7.30;88.40
57857;DHT22;43683;48.650;9.290;2022-12-29T00:48:57;7.30;88.30
57857;DHT22;43683;48.650;9.290;2022-12-29T00:51:42;7.40;88.00
57857;DHT22;43683;48.650;9.290;2022-12-29T00:54:08;7.40;87.90
57857;DHT22;43683;48.650;9.290;2022-12-29T00:56:34;7.40;87.90
57857;DHT22;43683;48.650;9.290;2022-12-29T00:59:05;7.40;87.90
57857;DHT22;43683;48.650;9.290;2022-12-29T01:01:31;7.40;87.80
57857;DHT22;43683;48.650;9.290;2022-12-29T01:03:57;7.30;87.90
57857;DHT22;43683;48.650;9.290;2022-12-29T01:06:23;7.30;87.90
57857;DHT22;43683;48.650;9.290;2022-12-29T01:08:48;7.20;87.90
57857;DHT22;43683;48.650;9.290;2022-12-29T01:11:37;7.10;88.10
57857;DHT22;43683;48.650;9.290;2022-12-29T01:14:03;7.00;88.50
57857;DHT22;43683;48.650;9.290;2022-12-29T01:16:29;6.80;88.70
57857;DHT22;43683;48.650;9.290;2022-12-29T01:18:54;6.70;89.00
57857;DHT22;43683;48.650;9.290;2022-12-29T01:21:20;6.60;89.20
57857;DHT22;43683;48.650;9.290;2022-12-29T01:23:45;6.60;89.10
57857;DHT22;43683;48.650;9.290;2022-12-29T01:26:12;6.70;89.00
57857;DHT22;43683;48.650;9.290;2022-12-29T01:28:38;6.70;88.70
57857;DHT22;43683;48.650;9.290;2022-12-29T01:31:08;6.70;88.40
57857;DHT22;43683;48.650;9.290;2022-12-29T01:33:33;6.80;88.10
57857;DHT22;43683;48.650;9.290;2022-12-29T01:36:03;6.90;88.00
57857;DHT22;43683;48.650;9.290;2022-12-29T01:38:30;6.90;87.70
57857;DHT22;43683;48.650;9.290;2022-12-29T01:40:55;7.00;87.70
57857;DHT22;43683;48.650;9.290;2022-12-29T01:43:21;7.00;87.40
57857;DHT22;43683;48.650;9.290;2022-12-29T01:45:51;7.00;88.00
57857;DHT22;43683;48.650;9.290;2022-12-29T01:48:18;7.10;87.20
57857;DHT22;43683;48.650;9.290;2022-12-29T01:50:52;7.20;86.90
57857;DHT22;43683;48.650;9.290;2022-12-29T01:53:21;7.20;86.70
57857;DHT22;43683;48.650;9.290;2022-12-29T01:55:53;7.30;86.70
57857;DHT22;43683;48.650;9.290;2022-12-29T01:58:21;7.30;86.50
57857;DHT22;43683;48.650;9.290;2022-12-29T02:00:48;7.40;86.40
57857;DHT22;43683;48.650;9.290;2022-12-29T02:03:14;7.40;86.50
57857;DHT22;43683;48.650;9.290;2022-12-29T02:06:02;7.40;86.50
57857;DHT22;43683;48.650;9.290;2022-12-29T02:08:29;7.40;86.40
57857;DHT22;43683;48.650;9.290;2022-12-29T02:10:56;7.40;86.60
57857;DHT22;43683;48.650;9.290;2022-12-29T02:13:24;7.40;86.60
57857;DHT22;43683;48.650;9.290;2022-12-29T02:18:57;7.40;86.40
57857;DHT22;43683;48.650;9.290;2022-12-29T02:25:06;7.40;86.70
57857;DHT22;43683;48.650;9.290;2022-12-29T02:27:51;7.40;86.70
57857;DHT22;43683;48.650;9.290;2022-12-29T02:33:00;7.60;86.40
57857;DHT22;43683;48.650;9.290;2022-12-29T02:35:37;7.70;86.20
57857;DHT22;43683;48.650;9.290;2022-12-29T02:38:14;7.80;86.10
57857;DHT22;43683;48.650;9.290;2022-12-29T02:41:39;7.80;85.80
57857;DHT22;43683;48.650;9.290;2022-12-29T02:52:00;8.30;85.00
57857;DHT22;43683;48.650;9.290;2022-12-29T02:54:26;8.50;84.50
57857;DHT22;43683;48.650;9.290;2022-12-29T02:59:54;8.80;83.80
57857;DHT22;43683;48.650;9.290;2022-12-29T03:05:17;8.80;83.70
57857;DHT22;43683;48.650;9.290;2022-12-29T03:08:09;8.90;83.70
57857;DHT22;43683;48.650;9.290;2022-12-29T03:11:08;8.90;83.50
57857;DHT22;43683;48.650;9.290;2022-12-29T03:13:57;9.00;83.50
57857;DHT22;43683;48.650;9.290;2022-12-29T03:17:03;9.00;83.50
57857;DHT22;43683;48.650;9.290;2022-12-29T03:19:36;9.10;83.20
57857;DHT22;43683;48.650;9.290;2022-12-29T03:22:06;9.20;83.20
57857;DHT22;43683;48.650;9.290;2022-12-29T03:24:54;9.20;83.10
57857;DHT22;43683;48.650;9.290;2022-12-29T03:27:28;9.30;82.80
57857;DHT22;43683;48.650;9.290;2022-12-29T03:29:58;9.40;82.30
57857;DHT22;43683;48.650;9.290;2022-12-29T03:32:28;9.50;82.10
57857;DHT22;43683;48.650;9.290;2022-12-29T03:34:55;9.60;82.00
57857;DHT22;43683;48.650;9.290;2022-12-29T03:37:25;9.60;81.80
57857;DHT22;43683;48.650;9.290;2022-12-29T03:39:51;9.60;81.80
57857;DHT22;43683;48.650;9.290;2022-12-29T03:42:20;9.60;81.80
57857;DHT22;43683;48.650;9.290;2022-12-29T03:44:46;9.60;81.70
57857;DHT22;43683;48.650;9.290;2022-12-29T03:47:14;9.50;81.70
57857;DHT22;43683;48.650;9.290;2022-12-29T03:49:40;9.50;81.70
57857;DHT22;43683;48.650;9.290;2022-12-29T03:52:05;9.50;81.70
57857;DHT22;43683;48.650;9.290;2022-12-29T03:54:32;9.60;81.50
57857;DHT22;43683;48.650;9.290;2022-12-29T03:56:58;9.60;81.20
57857;DHT22;43683;48.650;9.290;2022-12-29T03:59:24;9.70;81.10
57857;DHT22;43683;48.650;9.290;2022-12-29T04:01:49;9.70;81.00
57857;DHT22;43683;48.650;9.290;2022-12-29T04:04:15;9.60;81.00
57857;DHT22;43683;48.650;9.290;2022-12-29T04:06:41;9.60;81.20
57857;DHT22;43683;48.650;9.290;2022-12-29T04:09:06;9.40;81.50
57857;DHT22;43683;48.650;9.290;2022-12-29T04:11:32;9.30;81.80
57857;DHT22;43683;48.650;9.290;2022-12-29T04:13:57;9.20;81.90
57857;DHT22;43683;48.650;9.290;2022-12-29T04:16:23;9.10;81.90
57857;DHT22;43683;48.650;9.290;2022-12-29T04:18:48;9.00;82.00
57857;DHT22;43683;48.650;9.290;2022-12-29T04:21:13;8.80;82.30
57857;DHT22;43683;48.650;9.290;2022-12-29T04:23:39;8.80;82.50
57857;DHT22;43683;48.650;9.290;2022-12-29T04:26:06;8.60;82.60
57857;DHT22;43683;48.650;9.290;2022-12-29T04:28:35;8.50;82.80
57857;DHT22;43683;48.650;9.290;2022-12-29T04:31:02;8.30;83.10
57857;DHT22;43683;48.650;9.290;2022-12-29T04:33:28;8.20;83.40
57857;DHT22;43683;48.650;9.290;2022-12-29T04:35:54;8.10;83.60
57857;DHT22;43683;48.650;9.290;2022-12-29T04:38:20;8.00;83.60
57857;DHT22;43683;48.650;9.290;2022-12-29T04:40:46;8.00;83.40
57857;DHT22;43683;48.650;9.290;2022-12-29T04:43:12;7.90;83.30
57857;DHT22;43683;48.650;9.290;2022-12-29T04:45:42;7.90;83.10
57857;DHT22;43683;48.650;9.290;2022-12-29T04:48:08;8.00;83.10
57857;DHT22;43683;48.650;9.290;2022-12-29T04:50:34;7.90;83.10
57857;DHT22;43683;48.650;9.290;2022-12-29T04:52:59;7.80;83.20
57857;DHT22;43683;48.650;9.290;2022-12-29T04:55:25;7.70;83.30
57857;DHT22;43683;48.650;9.290;2022-12-29T04:57:50;7.70;83.50
57857;DHT22;43683;48.650;9.290;2022-12-29T05:00:16;7.60;83.70
57857;DHT22;43683;48.650;9.290;2022-12-29T05:02:42;7.40;83.90
57857;DHT22;43683;48.650;9.290;2022-12-29T05:05:07;7.20;84.20
57857;DHT22;43683;48.650;9.290;2022-12-29T05:07:33;7.10;84.50
57857;DHT22;43683;48.650;9.290;2022-12-29T05:09:59;7.00;84.70
57857;DHT22;43683;48.650;9.290;2022-12-29T05:12:25;6.90;84.90
57857;DHT22;43683;48.650;9.290;2022-12-29T05:14:50;6.80;84.80
57857;DHT22;43683;48.650;9.290;2022-12-29T05:17:16;6.80;84.60
57857;DHT22;43683;48.650;9.290;2022-12-29T05:19:41;6.90;84.50
57857;DHT22;43683;48.650;9.290;2022-12-29T05:22:07;7.00;84.20
57857;DHT22;43683;48.650;9.290;2022-12-29T05:24:32;7.30;83.60
57857;DHT22;43683;48.650;9.290;2022-12-29T05:26:58;7.40;83.10
57857;DHT22;43683;48.650;9.290;2022-12-29T05:29:23;7.50;82.90
57857;DHT22;43683;48.650;9.290;2022-12-29T05:31:49;7.60;82.80
57857;DHT22;43683;48.650;9.290;2022-12-29T05:34:14;7.50;83.00
57857;DHT22;43683;48.650;9.290;2022-12-29T05:36:40;7.50;83.30
57857;DHT22;43683;48.650;9.290;2022-12-29T05:39:05;7.40;83.60
57857;DHT22;43683;48.650;9.290;2022-12-29T05:41:33;7.20;83.90
57857;DHT22;43683;48.650;9.290;2022-12-29T05:43:58;7.10;84.20
57857;DHT22;43683;48.650;9.290;2022-12-29T05:46:24;7.10;84.40
57857;DHT22;43683;48.650;9.290;2022-12-29T05:48:49;7.10;84.50
57857;DHT22;43683;48.650;9.290;2022-12-29T05:51:15;7.30;84.20
57857;DHT22;43683;48.650;9.290;2022-12-29T05:53:40;7.50;83.60
57857;DHT22;43683;48.650;9.290;2022-12-29T05:56:06;7.70;83.10
57857;DHT22;43683;48.650;9.290;2022-12-29T05:58:32;7.90;82.60
57857;DHT22;43683;48.650;9.290;2022-12-29T06:00:58;7.90;82.40
57857;DHT22;43683;48.650;9.290;2022-12-29T06:03:23;7.90;82.50
57857;DHT22;43683;48.650;9.290;2022-12-29T06:05:49;8.00;82.40
57857;DHT22;43683;48.650;9.290;2022-12-29T06:08:14;7.90;82.60
57857;DHT22;43683;48.650;9.290;2022-12-29T06:10:40;7.90;82.90
57857;DHT22;43683;48.650;9.290;2022-12-29T06:13:06;8.00;82.80
57857;DHT22;43683;48.650;9.290;2022-12-29T06:15:32;8.20;82.40
57857;DHT22;43683;48.650;9.290;2022-12-29T06:17:58;8.40;81.90
57857;DHT22;43683;48.650;9.290;2022-12-29T06:20:23;8.50;81.50
57857;DHT22;43683;48.650;9.290;2022-12-29T06:22:49;8.70;81.30
57857;DHT22;43683;48.650;9.290;2022-12-29T06:25:15;8.90;80.80
57857;DHT22;43683;48.650;9.290;2022-12-29T06:27:41;9.00;80.50
57857;DHT22;43683;48.650;9.290;2022-12-29T06:30:08;9.10;80.40
57857;DHT22;43683;48.650;9.290;2022-12-29T06:32:34;9.10;80.40
57857;DHT22;43683;48.650;9.290;2022-12-29T06:35:00;9.10;80.60
57857;DHT22;43683;48.650;9.290;2022-12-29T06:37:25;9.10;81.40
57857;DHT22;43683;48.650;9.290;2022-12-29T06:39:51;9.00;80.90
57857;DHT22;43683;48.650;9.290;2022-12-29T06:42:16;9.00;81.20
57857;DHT22;43683;48.650;9.290;2022-12-29T06:44:42;9.00;81.30
57857;DHT22;43683;48.650;9.290;2022-12-29T06:47:08;9.10;81.10
57857;DHT22;43683;48.650;9.290;2022-12-29T06:49:33;9.20;80.90
57857;DHT22;43683;48.650;9.290;2022-12-29T06:51:59;9.30;80.70
57857;DHT22;43683;48.650;9.290;2022-12-29T06:54:26;9.40;80.50
57857;DHT22;43683;48.650;9.290;2022-12-29T06:56:52;9.50;80.20
57857;DHT22;43683;48.650;9.290;2022-12-29T06:59:17;9.60;79.90
57857;DHT22;43683;48.650;9.290;2022-12-29T07:01:43;9.60;79.80
57857;DHT22;43683;48.650;9.290;2022-12-29T07:04:08;9.60;79.80
57857;DHT22;43683;48.650;9.290;2022-12-29T07:06:34;9.50;80.10
57857;DHT22;43683;48.650;9.290;2022-12-29T07:08:59;9.40;80.50
57857;DHT22;43683;48.650;9.290;2022-12-29T07:11:25;9.20;80.80
57857;DHT22;43683;48.650;9.290;2022-12-29T07:13:51;9.10;81.10
57857;DHT22;43683;48.650;9.290;2022-12-29T07:16:16;9.10;81.30
57857;DHT22;43683;48.650;9.290;2022-12-29T07:18:42;9.10;81.40
57857;DHT22;43683;48.650;9.290;2022-12-29T07:21:08;9.10;81.30
57857;DHT22;43683;48.650;9.290;2022-12-29T07:23:33;9.10;81.20
57857;DHT22;43683;48.650;9.290;2022-12-29T07:26:04;9.10;81.20
57857;DHT22;43683;48.650;9.290;2022-12-29T07:28:29;9.00;81.20
57857;DHT22;43683;48.650;9.290;2022-12-29T07:30:55;9.00;81.50
57857;DHT22;43683;48.650;9.290;2022-12-29T07:33:21;9.10;81.40
57857;DHT22;43683;48.650;9.290;2022-12-29T07:35:46;9.00;82.10
57857;DHT22;43683;48.650;9.290;2022-12-29T07:38:12;9.10;81.60
57857;DHT22;43683;48.650;9.290;2022-12-29T07:40:37;9.00;81.40
57857;DHT22;43683;48.650;9.290;2022-12-29T07:43:03;9.00;81.50
57857;DHT22;43683;48.650;9.290;2022-12-29T07:45:29;9.10;81.50
57857;DHT22;43683;48.650;9.290;2022-12-29T07:47:55;9.20;81.20
57857;DHT22;43683;48.650;9.290;2022-12-29T07:50:20;9.20;81.00
57857;DHT22;43683;48.650;9.290;2022-12-29T07:52:46;9.20;81.00
57857;DHT22;43683;48.650;9.290;2022-12-29T07:55:13;9.30;80.90
57857;DHT22;43683;48.650;9.290;2022-12-29T07:57:39;9.30;80.90
57857;DHT22;43683;48.650;9.290;2022-12-29T08:00:05;9.40;80.60
57857;DHT22;43683;48.650;9.290;2022-12-29T08:02:31;9.50;80.30
57857;DHT22;43683;48.650;9.290;2022-12-29T08:04:56;9.60;80.00
57857;DHT22;43683;48.650;9.290;2022-12-29T08:07:22;9.80;79.60
57857;DHT22;43683;48.650;9.290;2022-12-29T08:09:47;10.00;79.30
57857;DHT22;43683;48.650;9.290;2022-12-29T08:12:13;10.10;79.20
57857;DHT22;43683;48.650;9.290;2022-12-29T08:14:38;10.20;79.00
57857;DHT22;43683;48.650;9.290;2022-12-29T08:17:04;10.40;78.70
57857;DHT22;43683;48.650;9.290;2022-12-29T08:19:29;10.50;78.50
57857;DHT22;43683;48.650;9.290;2022-12-29T08:21:55;10.60;78.20
57857;DHT22;43683;48.650;9.290;2022-12-29T08:24:20;10.80;77.90
57857;DHT22;43683;48.650;9.290;2022-12-29T08:26:46;10.90;77.60
57857;DHT22;43683;48.650;9.290;2022-12-29T08:29:11;11.00;77.50
57857;DHT22;43683;48.650;9.290;2022-12-29T08:31:37;11.00;77.30
57857;DHT22;43683;48.650;9.290;2022-12-29T08:34:02;11.10;77.30
57857;DHT22;43683;48.650;9.290;2022-12-29T08:36:29;11.10;77.20
57857;DHT22;43683;48.650;9.290;2022-12-29T08:38:55;11.10;77.20
57857;DHT22;43683;48.650;9.290;2022-12-29T08:41:21;11.20;77.30
57857;DHT22;43683;48.650;9.290;2022-12-29T08:43:47;11.20;77.20
57857;DHT22;43683;48.650;9.290;2022-12-29T08:46:13;11.20;77.10
57857;DHT22;43683;48.650;9.290;2022-12-29T08:48:39;11.30;77.10
57857;DHT22;43683;48.650;9.290;2022-12-29T08:51:04;11.30;77.10
57857;DHT22;43683;48.650;9.290;2022-12-29T08:53:30;11.30;76.90
57857;DHT22;43683;48.650;9.290;2022-12-29T08:55:58;11.30;76.70
57857;DHT22;43683;48.650;9.290;2022-12-29T08:58:24;11.40;76.60
57857;DHT22;43683;48.650;9.290;2022-12-29T09:00:55;11.30;76.80
57857;DHT22;43683;48.650;9.290;2022-12-29T09:03:21;11.30;76.90
57857;DHT22;43683;48.650;9.290;2022-12-29T09:05:51;11.30;76.80
57857;DHT22;43683;48.650;9.290;2022-12-29T09:08:17;11.20;76.70
57857;DHT22;43683;48.650;9.290;2022-12-29T09:10:44;11.20;76.60
57857;DHT22;43683;48.650;9.290;2022-12-29T09:13:10;11.20;76.80
57857;DHT22;43683;48.650;9.290;2022-12-29T09:15:36;11.30;76.60
57857;DHT22;43683;48.650;9.290;2022-12-29T09:18:02;11.40;76.00
57857;DHT22;43683;48.650;9.290;2022-12-29T09:20:27;11.60;75.40
57857;DHT22;43683;48.650;9.290;2022-12-29T09:22:53;11.70;75.20
57857;DHT22;43683;48.650;9.290;2022-12-29T09:25:19;11.80;74.90
57857;DHT22;43683;48.650;9.290;2022-12-29T09:27:45;11.70;74.90
57857;DHT22;43683;48.650;9.290;2022-12-29T09:30:14;11.70;74.90
57857;DHT22;43683;48.650;9.290;2022-12-29T09:32:40;11.80;74.80
57857;DHT22;43683;48.650;9.290;2022-12-29T09:35:06;11.80;74.50
57857;DHT22;43683;48.650;9.290;2022-12-29T09:37:31;11.90;74.20
57857;DHT22;43683;48.650;9.290;2022-12-29T09:39:57;12.00;74.20
57857;DHT22;43683;48.650;9.290;2022-12-29T09:42:38;12.00;74.10
57857;DHT22;43683;48.650;9.290;2022-12-29T09:45:14;12.00;73.70
57857;DHT22;43683;48.650;9.290;2022-12-29T09:47:42;12.10;73.70
57857;DHT22;43683;48.650;9.290;2022-12-29T09:53:04;12.10;73.70
57857;DHT22;43683;48.650;9.290;2022-12-29T09:55:38;12.20;73.50
57857;DHT22;43683;48.650;9.290;2022-12-29T10:01:02;12.40;73.20
57857;DHT22;43683;48.650;9.290;2022-12-29T10:03:54;12.40;72.80
57857;DHT22;43683;48.650;9.290;2022-12-29T10:06:45;12.50;72.80
57857;DHT22;43683;48.650;9.290;2022-12-29T10:11:58;12.50;72.50
57857;DHT22;43683;48.650;9.290;2022-12-29T10:14:42;12.50;72.60
57857;DHT22;43683;48.650;9.290;2022-12-29T10:20:47;12.30;73.00
57857;DHT22;43683;48.650;9.290;2022-12-29T10:25:44;12.20;73.30
57857;DHT22;43683;48.650;9.290;2022-12-29T10:28:23;12.20;73.60
57857;DHT22;43683;48.650;9.290;2022-12-29T10:30:50;12.10;73.40
57857;DHT22;43683;48.650;9.290;2022-12-29T10:33:32;12.20;73.40
57857;DHT22;43683;48.650;9.290;2022-12-29T10:35:59;12.20;73.30
57857;DHT22;43683;48.650;9.290;2022-12-29T10:38:35;12.20;73.10
57857;DHT22;43683;48.650;9.290;2022-12-29T10:41:15;12.20;73.00
57857;DHT22;43683;48.650;9.290;2022-12-29T10:43:53;12.30;72.80
57857;DHT22;43683;48.650;9.290;2022-12-29T10:46:23;12.40;72.70
57857;DHT22;43683;48.650;9.290;2022-12-29T10:48:49;12.40;72.60
57857;DHT22;43683;48.650;9.290;2022-12-29T10:51:54;12.40;72.80
57857;DHT22;43683;48.650;9.290;2022-12-29T10:54:32;12.20;73.30
57857;DHT22;43683;48.650;9.290;2022-12-29T10:57:03;11.80;74.30
57857;DHT22;43683;48.650;9.290;2022-12-29T10:59:33;11.70;74.90
57857;DHT22;43683;48.650;9.290;2022-12-29T11:04:43;12.00;73.90
57857;DHT22;43683;48.650;9.290;2022-12-29T11:07:12;12.10;73.60
57857;DHT22;43683;48.650;9.290;2022-12-29T11:09:39;12.20;73.20
57857;DHT22;43683;48.650;9.290;2022-12-29T11:12:28;12.40;73.10
57857;DHT22;43683;48.650;9.290;2022-12-29T11:15:23;12.40;72.80
57857;DHT22;43683;48.650;9.290;2022-12-29T11:17:56;12.60;72.50
57857;DHT22;43683;48.650;9.290;2022-12-29T11:22:56;12.90;71.90
57857;DHT22;43683;48.650;9.290;2022-12-29T11:25:22;12.90;71.80
57857;DHT22;43683;48.650;9.290;2022-12-29T11:28:03;12.90;71.80
57857;DHT22;43683;48.650;9.290;2022-12-29T11:30:31;12.80;71.80
57857;DHT22;43683;48.650;9.290;2022-12-29T11:32:57;12.70;72.20
57857;DHT22;43683;48.650;9.290;2022-12-29T11:38:02;12.60;72.30
57857;DHT22;43683;48.650;9.290;2022-12-29T11:40:29;12.60;72.70
57857;DHT22;43683;48.650;9.290;2022-12-29T11:43:00;12.50;73.10
57857;DHT22;43683;48.650;9.290;2022-12-29T11:45:31;12.40;73.40
57857;DHT22;43683;48.650;9.290;2022-12-29T11:47:59;12.40;73.60
57857;DHT22;43683;48.650;9.290;2022-12-29T11:50:30;12.40;73.60
57857;DHT22;43683;48.650;9.290;2022-12-29T11:55:54;12.30;74.20
57857;DHT22;43683;48.650;9.290;2022-12-29T11:58:27;12.50;74.30
57857;DHT22;43683;48.650;9.290;2022-12-29T12:00:54;12.60;74.10
57857;DHT22;43683;48.650;9.290;2022-12-29T12:03:23;12.60;74.10
57857;DHT22;43683;48.650;9.290;2022-12-29T12:06:01;12.50;74.30
57857;DHT22;43683;48.650;9.290;2022-12-29T12:08:34;12.40;74.60
57857;DHT22;43683;48.650;9.290;2022-12-29T12:11:14;12.20;74.90
57857;DHT22;43683;48.650;9.290;2022-12-29T12:14:00;12.10;75.10
57857;DHT22;43683;48.650;9.290;2022-12-29T12:16:33;12.00;75.40
57857;DHT22;43683;48.650;9.290;2022-12-29T12:22:38;11.90;76.00
57857;DHT22;43683;48.650;9.290;2022-12-29T12:30:45;11.80;76.10
57857;DHT22;43683;48.650;9.290;2022-12-29T12:33:31;11.70;76.30
57857;DHT22;43683;48.650;9.290;2022-12-29T12:38:44;11.90;76.50
57857;DHT22;43683;48.650;9.290;2022-12-29T12:44:04;12.60;75.50
57857;DHT22;43683;48.650;9.290;2022-12-29T12:57:47;12.60;76.30
57857;DHT22;43683;48.650;9.290;2022-12-29T13:00:18;12.50;76.50
57857;DHT22;43683;48.650;9.290;2022-12-29T13:03:26;12.50;76.60
57857;DHT22;43683;48.650;9.290;2022-12-29T13:06:00;12.40;76.60
57857;DHT22;43683;48.650;9.290;2022-12-29T13:11:40;12.00;77.40
57857;DHT22;43683;48.650;9.290;2022-12-29T13:14:40;11.90;77.60
57857;DHT22;43683;48.650;9.290;2022-12-29T13:17:42;11.90;77.70
57857;DHT22;43683;48.650;9.290;2022-12-29T13:20:43;12.20;77.40
57857;DHT22;43683;48.650;9.290;2022-12-29T13:23:23;12.20;77.60
57857;DHT22;43683;48.650;9.290;2022-12-29T13:26:02;12.10;77.90
57857;DHT22;43683;48.650;9.290;2022-12-29T13:28:37;12.00;78.30
57857;DHT22;43683;48.650;9.290;2022-12-29T13:31:47;11.80;78.70
57857;DHT22;43683;48.650;9.290;2022-12-29T13:34:32;11.80;79.20
57857;DHT22;43683;48.650;9.290;2022-12-29T13:37:07;11.70;79.40
57857;DHT22;43683;48.650;9.290;2022-12-29T13:39:38;11.60;79.60
57857;DHT22;43683;48.650;9.290;2022-12-29T13:42:05;11.50;79.60
57857;DHT22;43683;48.650;9.290;2022-12-29T13:44:44;11.50;79.50
57857;DHT22;43683;48.650;9.290;2022-12-29T13:47:34;11.50;79.60
57857;DHT22;43683;48.650;9.290;2022-12-29T13:50:01;11.60;79.50
57857;DHT22;43683;48.650;9.290;2022-12-29T13:56:04;12.10;78.80
57857;DHT22;43683;48.650;9.290;2022-12-29T14:01:11;12.30;78.70
57857;DHT22;43683;48.650;9.290;2022-12-29T14:03:52;12.40;78.90
57857;DHT22;43683;48.650;9.290;2022-12-29T14:06:24;12.40;79.00
57857;DHT22;43683;48.650;9.290;2022-12-29T14:08:59;12.50;79.20
57857;DHT22;43683;48.650;9.290;2022-12-29T14:11:32;12.80;79.40
57857;DHT22;43683;48.650;9.290;2022-12-29T14:13:59;13.20;78.90
57857;DHT22;43683;48.650;9.290;2022-12-29T14:16:36;13.30;78.30
57857;DHT22;43683;48.650;9.290;2022-12-29T14:19:26;13.20;78.20
57857;DHT22;43683;48.650;9.290;2022-12-29T14:21:56;12.80;78.70
57857;DHT22;43683;48.650;9.290;2022-12-29T14:24:40;12.60;79.30
57857;DHT22;43683;48.650;9.290;2022-12-29T14:34:51;11.70;80.40
57857;DHT22;43683;48.650;9.290;2022-12-29T14:37:37;11.50;81.00
57857;DHT22;43683;48.650;9.290;2022-12-29T14:40:17;11.40;81.50
57857;DHT22;43683;48.650;9.290;2022-12-29T14:42:44;11.40;81.60
57857;DHT22;43683;48.650;9.290;2022-12-29T14:47:44;11.20;81.50
57857;DHT22;43683;48.650;9.290;2022-12-29T14:55:45;10.60;82.10
57857;DHT22;43683;48.650;9.290;2022-12-29T15:00:45;10.30;82.50
57857;DHT22;43683;48.650;9.290;2022-12-29T15:03:24;10.20;82.60
57857;DHT22;43683;48.650;9.290;2022-12-29T15:05:55;10.00;82.90
57857;DHT22;43683;48.650;9.290;2022-12-29T15:08:28;9.80;83.20
57857;DHT22;43683;48.650;9.290;2022-12-29T15:10:59;9.70;83.40
57857;DHT22;43683;48.650;9.290;2022-12-29T15:13:37;9.70;83.40
57857;DHT22;43683;48.650;9.290;2022-12-29T15:16:04;9.70;83.20
57857;DHT22;43683;48.650;9.290;2022-12-29T15:18:31;9.70;83.10
57857;DHT22;43683;48.650;9.290;2022-12-29T15:21:03;9.70;83.00
57857;DHT22;43683;48.650;9.290;2022-12-29T15:23:31;9.70;83.00
57857;DHT22;43683;48.650;9.290;2022-12-29T15:25:59;9.60;83.00
57857;DHT22;43683;48.650;9.290;2022-12-29T15:28:28;9.50;83.20
57857;DHT22;43683;48.650;9.290;2022-12-29T15:31:10;9.40;83.40
57857;DHT22;43683;48.650;9.290;2022-12-29T15:33:40;9.30;83.90
57857;DHT22;43683;48.650;9.290;2022-12-29T15:36:12;9.20;84.00
57857;DHT22;43683;48.650;9.290;2022-12-29T15:38:38;9.20;84.20
57857;DHT22;43683;48.650;9.290;2022-12-29T15:41:39;9.20;84.00
57857;DHT22;43683;48.650;9.290;2022-12-29T15:44:44;9.40;83.70
57857;DHT22;43683;48.650;9.290;2022-12-29T15:47:21;9.60;82.80
57857;DHT22;43683;48.650;9.290;2022-12-29T15:50:02;9.80;82.30
57857;DHT22;43683;48.650;9.290;2022-12-29T15:52:29;9.80;82.00
57857;DHT22;43683;48.650;9.290;2022-12-29T15:54:58;9.90;82.00
57857;DHT22;43683;48.650;9.290;2022-12-29T15:57:27;9.80;82.20
57857;DHT22;43683;48.650;9.290;2022-12-29T15:59:53;9.70;82.50
57857;DHT22;43683;48.650;9.290;2022-12-29T16:02:23;9.60;83.10
57857;DHT22;43683;48.650;9.290;2022-12-29T16:04:50;9.50;83.40
57857;DHT22;43683;48.650;9.290;2022-12-29T16:07:30;9.40;83.70
57857;DHT22;43683;48.650;9.290;2022-12-29T16:09:58;9.20;84.30
57857;DHT22;43683;48.650;9.290;2022-12-29T16:12:33;9.20;84.50
57857;DHT22;43683;48.650;9.290;2022-12-29T16:15:02;9.30;84.40
57857;DHT22;43683;48.650;9.290;2022-12-29T16:17:30;9.50;83.80
57857;DHT22;43683;48.650;9.290;2022-12-29T16:20:13;9.70;83.20
57857;DHT22;43683;48.650;9.290;2022-12-29T16:22:42;9.80;82.60
57857;DHT22;43683;48.650;9.290;2022-12-29T16:25:32;10.00;82.00
57857;DHT22;43683;48.650;9.290;2022-12-29T16:28:00;10.10;81.70
57857;DHT22;43683;48.650;9.290;2022-12-29T16:30:32;10.10;81.60
57857;DHT22;43683;48.650;9.290;2022-12-29T16:33:03;10.20;81.60
57857;DHT22;43683;48.650;9.290;2022-12-29T16:35:44;10.10;81.50
57857;DHT22;43683;48.650;9.290;2022-12-29T16:38:18;10.10;81.60
57857;DHT22;43683;48.650;9.290;2022-12-29T16:43:34;10.10;81.80
57857;DHT22;43683;48.650;9.290;2022-12-29T16:48:30;10.00;81.90
57857;DHT22;43683;48.650;9.290;2022-12-29T16:51:06;10.00;82.00
57857;DHT22;43683;48.650;9.290;2022-12-29T16:53:39;9.90;82.10
57857;DHT22;43683;48.650;9.290;2022-12-29T16:56:16;9.80;82.20
57857;DHT22;43683;48.650;9.290;2022-12-29T16:58:50;9.70;82.40
57857;DHT22;43683;48.650;9.290;2022-12-29T17:01:17;9.80;82.60
57857;DHT22;43683;48.650;9.290;2022-12-29T17:04:00;9.70;82.60
57857;DHT22;43683;48.650;9.290;2022-12-29T17:06:26;9.70;82.60
57857;DHT22;43683;48.650;9.290;2022-12-29T17:08:52;9.60;82.60
57857;DHT22;43683;48.650;9.290;2022-12-29T17:11:24;9.60;82.80
57857;DHT22;43683;48.650;9.290;2022-12-29T17:15:04;9.60;83.60
57857;DHT22;43683;48.650;9.290;2022-12-29T17:17:13;9.60;82.90
57857;DHT22;43683;48.650;9.290;2022-12-29T17:19:39;9.60;82.90
57857;DHT22;43683;48.650;9.290;2022-12-29T17:22:11;9.60;82.90
57857;DHT22;43683;48.650;9.290;2022-12-29T17:24:38;9.50;83.00
57857;DHT22;43683;48.650;9.290;2022-12-29T17:27:04;9.30;83.50
57857;DHT22;43683;48.650;9.290;2022-12-29T17:29:37;9.10;84.10
57857;DHT22;43683;48.650;9.290;2022-12-29T17:32:06;8.90;84.60
57857;DHT22;43683;48.650;9.290;2022-12-29T17:34:34;8.90;84.80
57857;DHT22;43683;48.650;9.290;2022-12-29T17:37:00;8.90;84.90
57857;DHT22;43683;48.650;9.290;2022-12-29T17:39:25;8.90;84.80
57857;DHT22;43683;48.650;9.290;2022-12-29T17:41:51;8.80;84.80
57857;DHT22;43683;48.650;9.290;2022-12-29T17:44:18;8.80;85.00
57857;DHT22;43683;48.650;9.290;2022-12-29T17:46:44;8.80;85.20
57857;DHT22;43683;48.650;9.290;2022-12-29T17:49:15;8.70;85.10
57857;DHT22;43683;48.650;9.290;2022-12-29T17:51:42;8.70;85.30